Pagrindinis puslapis
METAR-TAF:

METAR-TAF

Oro uostai :

Charbinas, Kinija

platuma: 45-45N, ilguma: 126-46E, Aukštis: 143 m

Dabartinis oras

Ataskaita buvo paskelbta 1 valandą ir 4 minutes, ne 23:00 UTC
Vėjas 6 kt iš Pietų/Pietvakarių
Temperatūra 2°C
Drėgmė 37%
Slėgis 1018 hPa
Matomumas: 1600 m
dūmai

METAR: ZYHB 052300Z 20003MPS 1600 R23/0900N FU NSC 02/M11 Q1018 BECMG TL0030 3000

Laikas: 08:04 (00:04 UTC)

Prognozė

Ataskaita buvo paskelbta 2 valandos ir 58 minutes, ne 21:06 UTC
Prognozė galioja nuo 06 metu 00 UTC su 06 metu 24 UTC
Vėjas 8 kt iš Pietvakarių
Matomumas: 4000 m
Mažai debesys ne aukštis 3000 ft
dūmai
Tapsmas
nuo 06 metu 03 UTC su 06 metu 04 UTC
Vėjas 12 kt iš Šiaurės Vakarų su gūsio iki 23 kt

TAF: ZYHB 052106Z 0600/0624 23004MPS 4000 FU FEW030 TX11/0606Z TNM03/0621Z BECMG 0603/0604 31006G12MPS

Orai ataskaitas ir orų prognozės (METAR, TAF).

turimą stotys yra geltonos ir raudonos taškus žemėlapyje.

Perkelti pele per norėdami pamatyti stoties vardą.

Tada spustelėkite, norėdami matyti oro stebėjimo ir prognozės.

Norėdami pakeisti žemėlapį: spustelėkite ant žalios mygtukų su juodo kryžiaus žemyn,; žalią mygtuką su brūkšneliu, jei norite nutolinti; arba žalių rodyklių gretimoms žemėlapius.


METAR-TAF: